createdAt,value
2018-08-16T00:03:56.327Z,17.10
2018-08-16T00:09:25.661Z,17.00
2018-08-16T00:14:55.026Z,17.00
2018-08-16T00:20:24.346Z,17.00
2018-08-16T00:25:53.733Z,16.90
2018-08-16T00:31:23.104Z,16.90
2018-08-16T00:36:52.659Z,16.80
2018-08-16T00:42:22.051Z,16.70
2018-08-16T00:47:51.475Z,16.70
2018-08-16T00:53:21.761Z,16.70
2018-08-16T00:58:51.111Z,16.60
2018-08-16T01:04:20.659Z,16.60
2018-08-16T01:09:49.963Z,16.50
2018-08-16T01:15:19.404Z,16.50
2018-08-16T01:20:48.724Z,16.40
2018-08-16T01:26:17.995Z,16.30
2018-08-16T01:31:47.768Z,16.30
2018-08-16T01:37:17.734Z,16.20
2018-08-16T01:42:47.016Z,16.20
2018-08-16T01:48:16.291Z,16.10
2018-08-16T01:53:45.548Z,16.10
2018-08-16T01:59:14.768Z,16.00
2018-08-16T02:04:44.012Z,16.00
2018-08-16T02:10:13.283Z,15.90
2018-08-16T02:15:42.480Z,15.90
2018-08-16T02:21:13.591Z,15.80
2018-08-16T02:26:42.888Z,15.80
2018-08-16T02:32:12.175Z,15.70
2018-08-16T02:37:41.528Z,15.60
2018-08-16T02:43:10.891Z,15.60
2018-08-16T02:48:40.240Z,15.50
2018-08-16T02:54:09.544Z,15.50
2018-08-16T02:59:38.861Z,15.40
2018-08-16T03:05:08.287Z,15.40
2018-08-16T03:10:37.530Z,15.30
2018-08-16T03:16:07.928Z,15.30
2018-08-16T03:21:38.691Z,15.20
2018-08-16T03:27:07.960Z,15.10
2018-08-16T03:32:37.187Z,15.10
2018-08-16T03:38:07.149Z,15.10
2018-08-16T03:43:36.548Z,15.10
2018-08-16T03:49:05.967Z,15.00
2018-08-16T03:54:35.234Z,14.90
2018-08-16T04:00:05.871Z,14.90
2018-08-16T04:05:35.163Z,14.80
2018-08-16T04:11:04.556Z,14.80
2018-08-16T04:16:33.912Z,14.80
2018-08-16T04:22:03.327Z,14.80
2018-08-16T04:27:32.667Z,14.80
2018-08-16T04:33:01.975Z,14.80
2018-08-16T04:38:31.269Z,14.80
2018-08-16T04:44:00.658Z,14.90
2018-08-16T04:49:30.013Z,14.90
2018-08-16T04:54:59.310Z,15.00
2018-08-16T05:00:28.622Z,15.10
2018-08-16T05:05:57.891Z,15.20
2018-08-16T05:11:27.156Z,15.40
2018-08-16T05:16:56.520Z,15.60
2018-08-16T05:22:25.852Z,15.80
2018-08-16T05:27:55.219Z,16.00
2018-08-16T05:33:24.524Z,16.20
2018-08-16T05:38:53.906Z,16.40
2018-08-16T05:44:23.175Z,16.70
2018-08-16T05:49:52.499Z,16.90
2018-08-16T05:55:21.863Z,17.10
2018-08-16T06:00:51.223Z,17.40
2018-08-16T06:06:20.573Z,17.70
2018-08-16T06:11:49.902Z,17.90
2018-08-16T06:17:19.189Z,18.20
2018-08-16T06:22:48.563Z,18.40
2018-08-16T06:28:18.040Z,18.60
2018-08-16T06:33:47.459Z,18.90
2018-08-16T06:39:16.687Z,19.10
2018-08-16T06:44:45.947Z,19.40
2018-08-16T06:50:15.805Z,19.60
2018-08-16T06:55:45.819Z,19.90
2018-08-16T07:01:15.250Z,20.10
2018-08-16T07:06:45.588Z,20.30
2018-08-16T07:12:15.234Z,20.50
2018-08-16T07:17:45.312Z,20.70
2018-08-16T07:23:14.653Z,20.90
2018-08-16T07:28:43.905Z,21.10
2018-08-16T07:34:13.409Z,21.30
2018-08-16T07:39:42.794Z,21.50
2018-08-16T07:45:12.402Z,21.70
2018-08-16T07:50:41.651Z,21.90
2018-08-16T07:56:10.995Z,22.10
2018-08-16T08:01:40.498Z,22.30
2018-08-16T08:07:09.795Z,22.50
2018-08-16T08:12:39.263Z,22.60
2018-08-16T08:18:08.772Z,22.60
2018-08-16T08:23:38.005Z,22.80
2018-08-16T08:29:07.332Z,23.00
2018-08-16T08:34:36.645Z,23.20
2018-08-16T08:40:06.477Z,23.30
2018-08-16T08:45:35.849Z,23.60
2018-08-16T08:51:06.420Z,23.80
2018-08-16T08:56:53.113Z,24.00
2018-08-16T09:02:23.682Z,24.10
2018-08-16T09:07:53.053Z,24.20
2018-08-16T09:13:39.648Z,24.40
2018-08-16T09:19:09.764Z,24.50
2018-08-16T09:24:38.973Z,24.80
2018-08-16T09:32:28.370Z,24.90
2018-08-16T09:37:58.268Z,25.00
2018-08-16T09:43:27.626Z,25.10
2018-08-16T09:48:57.206Z,25.00
2018-08-16T09:54:26.724Z,25.20
2018-08-16T09:59:57.022Z,25.30
2018-08-16T10:05:26.495Z,25.40
2018-08-16T10:10:55.887Z,25.70
2018-08-16T10:16:25.642Z,25.80
2018-08-16T10:21:55.095Z,25.90
2018-08-16T10:27:24.408Z,26.20
2018-08-16T10:32:55.316Z,26.40
2018-08-16T10:38:24.839Z,26.60
2018-08-16T10:43:54.315Z,26.80
2018-08-16T10:49:23.901Z,26.80
2018-08-16T10:54:54.855Z,27.00
2018-08-16T11:00:24.350Z,27.20
2018-08-16T11:05:54.640Z,27.10
2018-08-16T11:11:23.997Z,27.00
2018-08-16T11:16:53.419Z,27.00
2018-08-16T11:22:22.926Z,27.00
2018-08-16T11:27:56.335Z,27.30
2018-08-16T11:33:25.831Z,27.40
2018-08-16T11:38:55.308Z,27.60
2018-08-16T11:44:24.880Z,27.50
2018-08-16T11:49:54.691Z,27.60
2018-08-16T11:55:24.160Z,27.90
2018-08-16T12:00:53.689Z,27.90
2018-08-16T12:06:23.137Z,28.00
2018-08-16T12:11:52.531Z,28.00
2018-08-16T12:17:21.907Z,28.20
2018-08-16T12:22:51.439Z,28.00
2018-08-16T12:28:20.815Z,27.90
2018-08-16T12:33:50.132Z,28.00
2018-08-16T12:39:19.400Z,27.90
2018-08-16T12:44:48.673Z,27.70
2018-08-16T12:50:18.062Z,27.90
2018-08-16T12:55:47.313Z,27.90
2018-08-16T13:01:16.623Z,28.10
2018-08-16T13:06:45.884Z,28.10
2018-08-16T13:12:15.192Z,28.10
2018-08-16T13:17:44.631Z,28.20
2018-08-16T13:23:14.989Z,28.20
2018-08-16T13:28:44.483Z,28.10
2018-08-16T13:34:14.055Z,28.00
2018-08-16T13:39:44.352Z,28.20
2018-08-16T13:45:13.563Z,28.60
2018-08-16T13:50:42.868Z,28.80
2018-08-16T13:56:12.079Z,28.60
2018-08-16T14:01:41.443Z,28.30
2018-08-16T14:07:10.766Z,28.50
2018-08-16T14:12:40.079Z,28.50
2018-08-16T14:18:09.319Z,28.70
2018-08-16T14:23:38.565Z,29.00
2018-08-16T14:29:07.808Z,29.50
2018-08-16T14:34:37.084Z,29.90
2018-08-16T14:40:06.591Z,30.40
2018-08-16T14:45:35.864Z,31.90
2018-08-16T14:51:05.259Z,33.60
2018-08-16T14:56:34.964Z,36.20
2018-08-16T15:02:04.256Z,37.70
2018-08-16T15:07:33.531Z,35.90
2018-08-16T15:13:03.453Z,33.70
2018-08-16T15:18:33.164Z,31.80
2018-08-16T15:24:02.492Z,30.70
2018-08-16T15:29:31.831Z,29.90
2018-08-16T15:35:01.159Z,29.00
2018-08-16T15:40:30.849Z,28.50
2018-08-16T15:46:00.179Z,29.20
2018-08-16T15:51:29.592Z,29.20
2018-08-16T15:56:58.967Z,28.80
2018-08-16T16:02:28.372Z,28.30
2018-08-16T16:07:58.753Z,28.10
2018-08-16T16:13:28.050Z,27.90
2018-08-16T16:18:57.408Z,27.70
2018-08-16T16:24:26.852Z,27.30
2018-08-16T16:29:56.327Z,27.20
2018-08-16T16:35:26.153Z,27.50
2018-08-16T16:40:55.802Z,27.20
2018-08-16T16:46:25.346Z,26.90
2018-08-16T16:51:55.353Z,26.70
2018-08-16T16:57:25.053Z,26.50
2018-08-16T17:02:54.607Z,26.30
2018-08-16T17:08:24.108Z,26.10
2018-08-16T17:13:53.773Z,26.00
2018-08-16T17:19:23.418Z,25.80
2018-08-16T17:24:53.060Z,25.70
2018-08-16T17:30:22.385Z,25.60
2018-08-16T17:35:51.672Z,25.40
2018-08-16T17:41:20.949Z,25.30
2018-08-16T17:46:50.264Z,25.20
2018-08-16T17:52:19.666Z,25.10
2018-08-16T17:57:48.935Z,25.00
2018-08-16T18:03:18.434Z,24.90
2018-08-16T18:08:47.627Z,24.80
2018-08-16T18:14:16.872Z,24.70
2018-08-16T18:19:46.247Z,24.60
2018-08-16T18:31:18.672Z,24.40
2018-08-16T18:36:48.015Z,24.30
2018-08-16T18:42:17.264Z,24.10
2018-08-16T18:47:47.241Z,24.00
2018-08-16T18:53:16.583Z,23.90
2018-08-16T18:58:46.263Z,23.70
2018-08-16T19:04:15.783Z,23.60
2018-08-16T19:09:45.191Z,23.50
2018-08-16T19:15:14.470Z,23.30
2018-08-16T19:20:43.880Z,23.20
2018-08-16T19:26:13.204Z,23.10
2018-08-16T19:31:42.683Z,22.90
2018-08-16T19:37:13.120Z,22.80
2018-08-16T19:42:42.447Z,22.70
2018-08-16T19:48:11.971Z,22.60
2018-08-16T19:53:42.413Z,22.40
2018-08-16T19:59:11.663Z,22.30
2018-08-16T20:04:41.067Z,22.20
2018-08-16T20:10:12.083Z,22.10
2018-08-16T20:15:41.694Z,22.00
2018-08-16T20:21:11.109Z,21.90
2018-08-16T20:26:40.487Z,21.80
2018-08-16T20:32:12.287Z,21.70
2018-08-16T20:37:41.787Z,21.60
2018-08-16T20:43:12.242Z,21.50
2018-08-16T20:48:41.811Z,21.30
2018-08-16T20:54:11.182Z,21.20
2018-08-16T20:59:40.860Z,21.10
2018-08-16T21:05:12.340Z,21.00
2018-08-16T21:10:41.686Z,20.90
2018-08-16T21:16:11.034Z,20.80
2018-08-16T21:21:40.467Z,20.60
2018-08-16T21:27:10.072Z,20.50
2018-08-16T21:32:39.487Z,20.40
2018-08-16T21:38:09.046Z,20.20
2018-08-16T21:43:38.509Z,20.10
2018-08-16T21:49:07.927Z,19.90
2018-08-16T21:54:37.351Z,19.80
2018-08-16T22:00:08.357Z,19.60
2018-08-16T22:06:08.821Z,19.50
2018-08-16T22:11:38.372Z,19.40
2018-08-16T22:17:07.727Z,19.20
2018-08-16T22:22:37.046Z,19.20
2018-08-16T22:28:06.436Z,19.10
2018-08-16T22:33:35.698Z,18.90
2018-08-16T22:39:08.496Z,18.80
2018-08-16T22:44:38.326Z,18.70
2018-08-16T22:50:08.276Z,18.60
2018-08-16T22:55:37.539Z,18.50
2018-08-16T23:01:06.888Z,18.40
2018-08-16T23:06:36.169Z,18.30
2018-08-16T23:12:05.657Z,18.20
2018-08-16T23:17:34.818Z,18.20
2018-08-16T23:23:04.069Z,18.00
2018-08-16T23:28:33.283Z,18.00
2018-08-16T23:34:02.448Z,17.90
2018-08-16T23:39:31.758Z,17.80
2018-08-16T23:45:00.997Z,17.70
2018-08-16T23:50:30.231Z,17.60
2018-08-16T23:55:59.508Z,17.50
